sensor_id;sensor_type;location;lat;lon;timestamp;pressure;altitude;pressure_sealevel;temperature
49557;BMP280;35462;45.048;7.666;2023-12-04T00:14:38;99574.44;;;6.53
49557;BMP280;35462;45.048;7.666;2023-12-04T00:29:57;99582.09;;;6.39
49557;BMP280;35462;45.048;7.666;2023-12-04T00:45:15;99559.69;;;6.26
49557;BMP280;35462;45.048;7.666;2023-12-04T01:00:34;99546.75;;;6.18
49557;BMP280;35462;45.048;7.666;2023-12-04T01:15:53;99554.16;;;6.12
49557;BMP280;35462;45.048;7.666;2023-12-04T01:31:12;99576.84;;;6.20
49557;BMP280;35462;45.048;7.666;2023-12-04T01:46:31;99573.06;;;6.18
49557;BMP280;35462;45.048;7.666;2023-12-04T02:01:52;99579.88;;;6.22
49557;BMP280;35462;45.048;7.666;2023-12-04T02:17:11;99581.50;;;6.26
49557;BMP280;35462;45.048;7.666;2023-12-04T02:32:33;99575.78;;;6.24
49557;BMP280;35462;45.048;7.666;2023-12-04T02:47:54;99544.69;;;6.26
49557;BMP280;35462;45.048;7.666;2023-12-04T03:03:14;99523.97;;;6.25
49557;BMP280;35462;45.048;7.666;2023-12-04T03:18:35;99525.16;;;6.27
49557;BMP280;35462;45.048;7.666;2023-12-04T03:33:54;99513.53;;;6.28
49557;BMP280;35462;45.048;7.666;2023-12-04T03:49:14;99518.47;;;6.33
49557;BMP280;35462;45.048;7.666;2023-12-04T04:04:34;99526.28;;;6.49
49557;BMP280;35462;45.048;7.666;2023-12-04T04:19:53;99514.91;;;6.41
49557;BMP280;35462;45.048;7.666;2023-12-04T04:35:13;99508.53;;;6.42
49557;BMP280;35462;45.048;7.666;2023-12-04T04:50:32;99494.66;;;6.23
49557;BMP280;35462;45.048;7.666;2023-12-04T05:05:51;99489.47;;;6.26
49557;BMP280;35462;45.048;7.666;2023-12-04T05:21:11;99480.56;;;6.34
49557;BMP280;35462;45.048;7.666;2023-12-04T05:36:31;99488.75;;;6.52
49557;BMP280;35462;45.048;7.666;2023-12-04T05:51:51;99479.28;;;6.47
49557;BMP280;35462;45.048;7.666;2023-12-04T06:07:10;99496.81;;;6.40
49557;BMP280;35462;45.048;7.666;2023-12-04T06:22:29;99501.34;;;6.39
49557;BMP280;35462;45.048;7.666;2023-12-04T06:37:53;99495.81;;;6.48
49557;BMP280;35462;45.048;7.666;2023-12-04T06:53:13;99486.59;;;6.57
49557;BMP280;35462;45.048;7.666;2023-12-04T07:08:32;99463.44;;;6.21
49557;BMP280;35462;45.048;7.666;2023-12-04T07:23:51;99441.28;;;6.22
49557;BMP280;35462;45.048;7.666;2023-12-04T07:39:11;99436.41;;;6.69
49557;BMP280;35462;45.048;7.666;2023-12-04T07:54:30;99440.59;;;6.48
49557;BMP280;35462;45.048;7.666;2023-12-04T08:09:50;99448.72;;;6.39
49557;BMP280;35462;45.048;7.666;2023-12-04T08:25:10;99449.56;;;6.43
49557;BMP280;35462;45.048;7.666;2023-12-04T08:40:29;99453.97;;;6.62
49557;BMP280;35462;45.048;7.666;2023-12-04T08:55:49;99455.22;;;6.97
49557;BMP280;35462;45.048;7.666;2023-12-04T09:11:10;99468.81;;;7.29
49557;BMP280;35462;45.048;7.666;2023-12-04T09:26:30;99465.69;;;7.49
49557;BMP280;35462;45.048;7.666;2023-12-04T09:41:50;99441.50;;;7.73
49557;BMP280;35462;45.048;7.666;2023-12-04T09:57:11;99466.53;;;7.93
49557;BMP280;35462;45.048;7.666;2023-12-04T10:12:32;99446.47;;;7.85
49557;BMP280;35462;45.048;7.666;2023-12-04T10:27:54;99411.41;;;7.81
49557;BMP280;35462;45.048;7.666;2023-12-04T10:43:23;99391.66;;;7.64
49557;BMP280;35462;45.048;7.666;2023-12-04T10:58:49;99360.72;;;7.54
49557;BMP280;35462;45.048;7.666;2023-12-04T11:14:12;99327.41;;;7.36
49557;BMP280;35462;45.048;7.666;2023-12-04T11:29:36;99293.31;;;7.50
49557;BMP280;35462;45.048;7.666;2023-12-04T11:44:57;99278.50;;;7.82
49557;BMP280;35462;45.048;7.666;2023-12-04T12:15:41;99263.38;;;7.75
49557;BMP280;35462;45.048;7.666;2023-12-04T12:31:04;99257.09;;;7.43
49557;BMP280;35462;45.048;7.666;2023-12-04T12:46:23;99235.81;;;7.19
49557;BMP280;35462;45.048;7.666;2023-12-04T13:01:43;99220.53;;;7.35
49557;BMP280;35462;45.048;7.666;2023-12-04T13:17:03;99204.69;;;6.88
49557;BMP280;35462;45.048;7.666;2023-12-04T13:32:23;99190.97;;;7.05
49557;BMP280;35462;45.048;7.666;2023-12-04T13:47:42;99169.09;;;7.01
49557;BMP280;35462;45.048;7.666;2023-12-04T14:03:04;99161.78;;;6.84
49557;BMP280;35462;45.048;7.666;2023-12-04T14:18:26;99168.22;;;6.87
49557;BMP280;35462;45.048;7.666;2023-12-04T14:33:46;99140.63;;;6.74
49557;BMP280;35462;45.048;7.666;2023-12-04T14:49:07;99140.25;;;6.75
49557;BMP280;35462;45.048;7.666;2023-12-04T15:04:27;99136.84;;;6.35
49557;BMP280;35462;45.048;7.666;2023-12-04T15:20:05;99143.78;;;6.50
49557;BMP280;35462;45.048;7.666;2023-12-04T15:35:28;99133.94;;;6.43
49557;BMP280;35462;45.048;7.666;2023-12-04T15:50:47;99122.63;;;6.39
49557;BMP280;35462;45.048;7.666;2023-12-04T16:06:08;99122.00;;;6.17
49557;BMP280;35462;45.048;7.666;2023-12-04T16:21:28;99144.47;;;6.43
49557;BMP280;35462;45.048;7.666;2023-12-04T16:36:47;99142.25;;;6.45
49557;BMP280;35462;45.048;7.666;2023-12-04T16:52:07;99125.09;;;6.25
49557;BMP280;35462;45.048;7.666;2023-12-04T17:07:26;99122.81;;;5.95
49557;BMP280;35462;45.048;7.666;2023-12-04T17:22:46;99116.50;;;6.28
49557;BMP280;35462;45.048;7.666;2023-12-04T17:38:07;99115.63;;;6.18
49557;BMP280;35462;45.048;7.666;2023-12-04T17:53:26;99114.16;;;6.23
49557;BMP280;35462;45.048;7.666;2023-12-04T18:08:46;99117.97;;;6.26
49557;BMP280;35462;45.048;7.666;2023-12-04T18:24:05;99090.84;;;6.19
49557;BMP280;35462;45.048;7.666;2023-12-04T18:39:25;99086.81;;;5.95
49557;BMP280;35462;45.048;7.666;2023-12-04T18:54:45;99086.31;;;6.16
49557;BMP280;35462;45.048;7.666;2023-12-04T19:10:06;99059.09;;;6.01
49557;BMP280;35462;45.048;7.666;2023-12-04T19:25:25;99062.97;;;5.52
49557;BMP280;35462;45.048;7.666;2023-12-04T19:40:49;99035.44;;;5.39
49557;BMP280;35462;45.048;7.666;2023-12-04T19:56:09;99050.72;;;5.89
49557;BMP280;35462;45.048;7.666;2023-12-04T20:11:29;99034.94;;;5.89
49557;BMP280;35462;45.048;7.666;2023-12-04T20:26:48;99020.34;;;5.95
49557;BMP280;35462;45.048;7.666;2023-12-04T20:42:11;99012.66;;;5.76
49557;BMP280;35462;45.048;7.666;2023-12-04T20:57:30;98994.88;;;5.66
49557;BMP280;35462;45.048;7.666;2023-12-04T21:12:50;98982.88;;;5.35
49557;BMP280;35462;45.048;7.666;2023-12-04T21:28:09;98991.91;;;5.67
49557;BMP280;35462;45.048;7.666;2023-12-04T21:43:28;98962.84;;;5.86
49557;BMP280;35462;45.048;7.666;2023-12-04T21:58:48;98957.16;;;5.81
49557;BMP280;35462;45.048;7.666;2023-12-04T22:14:08;98950.56;;;5.61
49557;BMP280;35462;45.048;7.666;2023-12-04T22:29:27;98941.22;;;5.30
49557;BMP280;35462;45.048;7.666;2023-12-04T22:44:46;98931.59;;;5.12
49557;BMP280;35462;45.048;7.666;2023-12-04T23:00:06;98923.88;;;5.26
49557;BMP280;35462;45.048;7.666;2023-12-04T23:15:31;98914.56;;;5.65
49557;BMP280;35462;45.048;7.666;2023-12-04T23:30:50;98891.69;;;6.02
49557;BMP280;35462;45.048;7.666;2023-12-04T23:46:10;98865.28;;;5.88
